Terminal Aerodrome Forecast
Issued by NWS

Home | Current Version | Previous Version | Graphics & Text | Print | Product List | Glossary On
Versions: 1 2 3 4 5 6 7 8 9 10 11 12 13
000
FTUS43 KBIS 010525
TAFDIK
TAF
KDIK 010525Z 0106/0206 12006KT P6SM SKC
     FM011000 18007KT P6SM SKC
     FM011800 30015G22KT P6SM SKC
     FM012100 28016G24KT P6SM SKC
     FM020400 32012KT P6SM SKC=

USA.gov is the U.S. government's official web portal to all federal, state and local government web resources and services.